Annadale, South Africa
Current Conditions -  °F | °C
As of 3:00 PM on Thursday 30 Oct 2014 (Local Time) from FAPP Reporting Station
Few Clouds Few Clouds  
Wind Chill: 90°   Ceiling: Unl
Heat Index: 90°   Visibility: 6mi
Dew Point: 36°   Wind: 3mph
Humidity: 15%   Direction: 190°S
Pressure: 30.03"   Gusts: NA
Location:  23.88°S, 29.45°E
Report Text: FAPP 301300Z 19003KT 9999 FEW050TCU 32/02 Q1017 NOSIG
Loading
Personal Weather Stations






























Interactive Weather Map
Tropical Storm Tracking
New forecast layout! Learn more

10-Day Weather Forecast

Advertisements
Track Severe Weather on mobile